SAS2648 EDDH-ESSA
Flight info
| Callsign | SAS2648 |
|---|---|
| Flight time | 1h 11m |
| Altitude | 37000 |
| Route | LUGEG3G/33 LUGEG P605 MEGAR DCT KUBIS DCT MIKNA N851 PELUP Z226 NILUG |
| Aircraft | A321/M-SDE3FGHIRWY/LB1 |
Departure
| Time | 2026-05-04 15:43 |
|---|---|
| Airport | Hamburg Helmut Schmidt Airport (EDDH) |
Arrival
| Time | 2026-05-04 16:55 |
|---|---|
| Airport | Stockholm-Arlanda Airport (ESSA) |
| Time | Latitude | Longitude | Altitude | Speed | Heading |
|---|---|---|---|---|---|
| 2026-05-04 15:22 | 53.63244 | 10.00343 | 49 ft | 0 kts | 86° |
| 2026-05-04 15:37 | 53.63244 | 10.00323 | 48 ft | 3 kts | 86° |
| 2026-05-04 15:37 | 53.63242 | 10.00290 | 48 ft | 3 kts | 88° |
| 2026-05-04 15:37 | 53.63243 | 10.00260 | 48 ft | 3 kts | 121° |
| 2026-05-04 15:38 | 53.63253 | 10.00243 | 48 ft | 2 kts | 172° |
| 2026-05-04 15:38 | 53.63264 | 10.00241 | 47 ft | 2 kts | 176° |
| 2026-05-04 15:38 | 53.63277 | 10.00239 | 48 ft | 1 kts | 176° |
| 2026-05-04 15:38 | 53.63278 | 10.00239 | 48 ft | 0 kts | 176° |
| 2026-05-04 15:40 | 53.63276 | 10.00239 | 48 ft | 1 kts | 176° |
| 2026-05-04 15:40 | 53.63228 | 10.00245 | 47 ft | 12 kts | 176° |
| 2026-05-04 15:40 | 53.63134 | 10.00256 | 48 ft | 14 kts | 176° |
| 2026-05-04 15:41 | 53.63035 | 10.00229 | 48 ft | 15 kts | 216° |
| 2026-05-04 15:41 | 53.62944 | 10.00127 | 48 ft | 16 kts | 213° |
| 2026-05-04 15:41 | 53.62858 | 10.00001 | 48 ft | 16 kts | 242° |
| 2026-05-04 15:41 | 53.62825 | 9.99899 | 47 ft | 11 kts | 241° |
| 2026-05-04 15:42 | 53.62835 | 9.99775 | 44 ft | 11 kts | 332° |
| 2026-05-04 15:42 | 53.62866 | 9.99747 | 45 ft | 0 kts | 332° |
| 2026-05-04 15:42 | 53.62876 | 9.99738 | 45 ft | 5 kts | 332° |
| 2026-05-04 15:43 | 53.63099 | 9.99545 | 44 ft | 75 kts | 333° |
| 2026-05-04 15:43 | 53.63778 | 9.98959 | 47 ft | 141 kts | 332° |
| 2026-05-04 15:43 | 53.64732 | 9.98149 | 572 ft | 152 kts | 332° |
| 2026-05-04 15:43 | 53.65687 | 9.97338 | 1338 ft | 155 kts | 331° |
| 2026-05-04 15:44 | 53.66684 | 9.96479 | 1802 ft | 173 kts | 331° |
| 2026-05-04 15:44 | 53.67830 | 9.95486 | 2167 ft | 195 kts | 330° |
| 2026-05-04 15:44 | 53.69177 | 9.94700 | 2743 ft | 214 kts | 351° |
| 2026-05-04 15:44 | 53.70685 | 9.94665 | 3536 ft | 219 kts | 357° |
| 2026-05-04 15:45 | 53.72221 | 9.94853 | 4418 ft | 227 kts | 11° |
| 2026-05-04 15:45 | 53.73680 | 9.96113 | 4939 ft | 256 kts | 41° |
| 2026-05-04 15:45 | 53.74872 | 9.98541 | 5430 ft | 277 kts | 51° |
| 2026-05-04 15:45 | 53.76048 | 10.01182 | 6161 ft | 285 kts | 52° |
| 2026-05-04 15:46 | 53.77239 | 10.03894 | 6947 ft | 290 kts | 52° |
| 2026-05-04 15:46 | 53.78449 | 10.06645 | 7742 ft | 294 kts | 51° |
| 2026-05-04 15:46 | 53.79683 | 10.09435 | 8532 ft | 299 kts | 51° |
| 2026-05-04 15:46 | 53.80939 | 10.12266 | 9339 ft | 303 kts | 51° |
| 2026-05-04 15:47 | 53.82214 | 10.15136 | 10105 ft | 307 kts | 52° |
| 2026-05-04 15:47 | 53.83545 | 10.18122 | 10427 ft | 328 kts | 51° |
| 2026-05-04 15:47 | 53.84968 | 10.21310 | 10601 ft | 351 kts | 52° |
| 2026-05-04 15:47 | 53.86471 | 10.24692 | 10924 ft | 366 kts | 52° |
| 2026-05-04 15:48 | 53.88011 | 10.28175 | 11489 ft | 371 kts | 52° |
| 2026-05-04 15:48 | 53.89564 | 10.31702 | 12156 ft | 375 kts | 51° |
| 2026-05-04 15:48 | 53.92726 | 10.38877 | 13461 ft | 383 kts | 51° |
| 2026-05-04 15:49 | 53.94328 | 10.42517 | 14066 ft | 387 kts | 51° |
| 2026-05-04 15:49 | 53.95953 | 10.46208 | 14644 ft | 391 kts | 51° |
| 2026-05-04 15:49 | 53.97590 | 10.49934 | 15231 ft | 395 kts | 51° |
| 2026-05-04 15:49 | 53.99239 | 10.53695 | 15781 ft | 399 kts | 51° |
| 2026-05-04 15:50 | 54.00901 | 10.57493 | 16329 ft | 403 kts | 51° |
| 2026-05-04 15:50 | 54.02590 | 10.61355 | 16888 ft | 408 kts | 51° |
| 2026-05-04 15:50 | 54.04285 | 10.65241 | 17436 ft | 411 kts | 51° |
| 2026-05-04 15:50 | 54.05976 | 10.69122 | 17995 ft | 415 kts | 51° |
| 2026-05-04 15:51 | 54.07699 | 10.73086 | 18502 ft | 419 kts | 51° |
| 2026-05-04 15:51 | 54.09439 | 10.77095 | 18947 ft | 423 kts | 51° |
| 2026-05-04 15:51 | 54.11194 | 10.81146 | 19396 ft | 427 kts | 51° |
| 2026-05-04 15:51 | 54.12961 | 10.85235 | 19847 ft | 430 kts | 51° |
| 2026-05-04 15:52 | 54.14687 | 10.89231 | 20284 ft | 434 kts | 51° |
| 2026-05-04 15:52 | 54.16481 | 10.93393 | 20731 ft | 438 kts | 51° |
| 2026-05-04 15:52 | 54.18292 | 10.97591 | 21180 ft | 441 kts | 51° |
| 2026-05-04 15:52 | 54.20115 | 11.01824 | 21588 ft | 445 kts | 51° |
| 2026-05-04 15:53 | 54.21962 | 11.06126 | 22022 ft | 449 kts | 51° |
| 2026-05-04 15:53 | 54.23811 | 11.10436 | 22447 ft | 452 kts | 51° |
| 2026-05-04 15:53 | 54.25683 | 11.14797 | 22862 ft | 456 kts | 51° |
| 2026-05-04 15:53 | 54.27560 | 11.19185 | 23277 ft | 460 kts | 51° |
| 2026-05-04 15:54 | 54.29452 | 11.23633 | 23651 ft | 464 kts | 51° |
| 2026-05-04 15:54 | 54.31355 | 11.28123 | 24028 ft | 467 kts | 51° |
| 2026-05-04 15:54 | 54.33267 | 11.32642 | 24382 ft | 470 kts | 51° |
| 2026-05-04 15:54 | 54.35195 | 11.37197 | 24744 ft | 473 kts | 51° |
| 2026-05-04 15:55 | 54.37134 | 11.41774 | 25108 ft | 476 kts | 51° |
| 2026-05-04 15:55 | 54.39083 | 11.46377 | 25471 ft | 478 kts | 51° |
| 2026-05-04 15:55 | 54.41038 | 11.51002 | 25827 ft | 481 kts | 51° |
| 2026-05-04 15:55 | 54.43008 | 11.55675 | 26176 ft | 484 kts | 51° |
| 2026-05-04 15:56 | 54.45019 | 11.60326 | 26526 ft | 485 kts | 47° |
| 2026-05-04 15:56 | 54.47324 | 11.64548 | 26858 ft | 484 kts | 38° |
| 2026-05-04 15:56 | 54.49939 | 11.68164 | 27197 ft | 481 kts | 30° |
| 2026-05-04 15:56 | 54.52759 | 11.71258 | 27532 ft | 482 kts | 27° |
| 2026-05-04 15:57 | 54.55612 | 11.74330 | 27858 ft | 485 kts | 27° |
| 2026-05-04 15:57 | 54.58481 | 11.77426 | 28205 ft | 488 kts | 27° |
| 2026-05-04 15:57 | 54.61365 | 11.80549 | 28544 ft | 490 kts | 27° |
| 2026-05-04 15:57 | 54.64258 | 11.83700 | 28874 ft | 493 kts | 27° |
| 2026-05-04 15:58 | 54.67160 | 11.86875 | 29185 ft | 495 kts | 27° |
| 2026-05-04 15:58 | 54.70041 | 11.90037 | 29484 ft | 498 kts | 27° |
| 2026-05-04 15:58 | 54.72971 | 11.93258 | 29776 ft | 500 kts | 27° |
| 2026-05-04 15:58 | 54.75952 | 11.96532 | 30049 ft | 502 kts | 27° |
| 2026-05-04 15:59 | 54.78901 | 11.99770 | 30388 ft | 502 kts | 27° |
| 2026-05-04 15:59 | 54.81844 | 12.03008 | 30729 ft | 500 kts | 27° |
| 2026-05-04 15:59 | 54.84741 | 12.06203 | 31088 ft | 499 kts | 27° |
| 2026-05-04 15:59 | 54.87660 | 12.09428 | 31458 ft | 497 kts | 27° |
| 2026-05-04 16:00 | 54.90574 | 12.12654 | 31834 ft | 495 kts | 27° |
| 2026-05-04 16:00 | 54.93467 | 12.15866 | 32221 ft | 493 kts | 28° |
| 2026-05-04 16:00 | 54.96354 | 12.19075 | 32609 ft | 491 kts | 28° |
| 2026-05-04 16:00 | 54.99225 | 12.22271 | 32985 ft | 489 kts | 28° |
| 2026-05-04 16:01 | 55.02081 | 12.25453 | 33357 ft | 487 kts | 28° |
| 2026-05-04 16:01 | 55.04928 | 12.28632 | 33723 ft | 485 kts | 28° |
| 2026-05-04 16:01 | 55.07764 | 12.31803 | 34060 ft | 483 kts | 28° |
| 2026-05-04 16:01 | 55.10590 | 12.34967 | 34352 ft | 482 kts | 28° |
| 2026-05-04 16:02 | 55.13409 | 12.38125 | 34615 ft | 481 kts | 28° |
| 2026-05-04 16:02 | 55.16230 | 12.41290 | 34861 ft | 480 kts | 29° |
| 2026-05-04 16:02 | 55.21841 | 12.47622 | 35367 ft | 480 kts | 29° |
| 2026-05-04 16:03 | 55.24634 | 12.50818 | 35609 ft | 479 kts | 30° |
| 2026-05-04 16:03 | 55.27409 | 12.54063 | 35861 ft | 479 kts | 30° |
| 2026-05-04 16:03 | 55.30172 | 12.57343 | 36107 ft | 479 kts | 31° |
| 2026-05-04 16:03 | 55.32921 | 12.60628 | 36347 ft | 478 kts | 31° |
| 2026-05-04 16:04 | 55.35673 | 12.63913 | 36576 ft | 478 kts | 31° |
| 2026-05-04 16:04 | 55.41191 | 12.70459 | 36915 ft | 478 kts | 31° |
| 2026-05-04 16:04 | 55.43019 | 12.72622 | 36953 ft | 478 kts | 31° |
| 2026-05-04 16:05 | 55.49455 | 12.80283 | 36942 ft | 478 kts | 31° |
| 2026-05-04 16:06 | 55.57709 | 12.90173 | 36947 ft | 477 kts | 31° |
| 2026-05-04 16:07 | 55.68657 | 13.03366 | 36951 ft | 478 kts | 31° |
| 2026-05-04 16:08 | 55.79312 | 13.17610 | 36946 ft | 481 kts | 36° |
| 2026-05-04 16:09 | 55.92362 | 13.36218 | 36952 ft | 481 kts | 35° |
| 2026-05-04 16:10 | 56.02891 | 13.50980 | 36950 ft | 481 kts | 35° |
| 2026-05-04 16:11 | 56.13365 | 13.65911 | 36938 ft | 481 kts | 35° |
| 2026-05-04 16:12 | 56.29068 | 13.88417 | 36917 ft | 481 kts | 35° |
| 2026-05-04 16:13 | 56.38617 | 14.02273 | 36909 ft | 481 kts | 36° |
| 2026-05-04 16:14 | 56.49044 | 14.17466 | 36900 ft | 481 kts | 36° |
| 2026-05-04 16:16 | 56.62049 | 14.36578 | 36893 ft | 481 kts | 36° |
| 2026-05-04 16:17 | 56.75033 | 14.55829 | 36883 ft | 482 kts | 36° |
| 2026-05-04 16:18 | 56.85411 | 14.71363 | 36885 ft | 482 kts | 36° |
| 2026-05-04 16:19 | 56.98359 | 14.90871 | 36877 ft | 483 kts | 36° |
| 2026-05-04 16:20 | 57.11291 | 15.10561 | 36852 ft | 483 kts | 36° |
| 2026-05-04 16:22 | 57.24207 | 15.30408 | 36818 ft | 484 kts | 36° |
| 2026-05-04 16:23 | 57.39669 | 15.54405 | 36803 ft | 485 kts | 36° |
| 2026-05-04 16:25 | 57.55143 | 15.78719 | 36788 ft | 486 kts | 36° |
| 2026-05-04 16:26 | 57.73189 | 16.07400 | 36779 ft | 487 kts | 36° |
| 2026-05-04 16:28 | 57.86053 | 16.28116 | 36761 ft | 488 kts | 37° |
| 2026-05-04 16:28 | 57.93765 | 16.40625 | 36083 ft | 487 kts | 36° |
| 2026-05-04 16:29 | 58.03986 | 16.57300 | 35087 ft | 487 kts | 36° |
| 2026-05-04 16:30 | 58.12348 | 16.67567 | 34359 ft | 477 kts | 24° |
| 2026-05-04 16:31 | 58.18024 | 16.74135 | 33896 ft | 476 kts | 23° |
| 2026-05-04 16:31 | 58.26836 | 16.82892 | 30237 ft | 478 kts | 21° |
| 2026-05-04 16:32 | 58.35523 | 16.91739 | 27895 ft | 464 kts | 23° |
| 2026-05-04 16:33 | 58.41103 | 16.97684 | 26662 ft | 454 kts | 23° |
| 2026-05-04 16:33 | 58.46575 | 17.03494 | 25456 ft | 446 kts | 23° |
| 2026-05-04 16:34 | 58.51960 | 17.09188 | 24267 ft | 439 kts | 23° |
| 2026-05-04 16:34 | 58.54625 | 17.12014 | 23684 ft | 436 kts | 23° |
| 2026-05-04 16:35 | 58.62489 | 17.20406 | 21976 ft | 424 kts | 23° |
| 2026-05-04 16:35 | 58.70091 | 17.28542 | 20454 ft | 410 kts | 23° |
| 2026-05-04 16:36 | 58.72530 | 17.31154 | 19966 ft | 405 kts | 23° |
| 2026-05-04 16:36 | 58.77404 | 17.36389 | 18984 ft | 397 kts | 23° |
| 2026-05-04 16:37 | 58.82189 | 17.41553 | 17968 ft | 391 kts | 23° |
| 2026-05-04 16:37 | 58.84558 | 17.44113 | 17421 ft | 388 kts | 23° |
| 2026-05-04 16:37 | 58.89242 | 17.49201 | 16356 ft | 385 kts | 24° |
| 2026-05-04 16:38 | 58.93860 | 17.54246 | 15438 ft | 377 kts | 24° |
| 2026-05-04 16:39 | 59.00720 | 17.61742 | 14571 ft | 374 kts | 24° |
| 2026-05-04 16:39 | 59.05223 | 17.66683 | 13985 ft | 370 kts | 24° |
| 2026-05-04 16:40 | 59.09681 | 17.71598 | 13384 ft | 366 kts | 24° |
| 2026-05-04 16:40 | 59.14087 | 17.76467 | 12805 ft | 362 kts | 25° |
| 2026-05-04 16:41 | 59.18443 | 17.81297 | 12232 ft | 359 kts | 25° |
| 2026-05-04 16:41 | 59.24894 | 17.88467 | 11393 ft | 352 kts | 23° |
| 2026-05-04 16:42 | 59.31478 | 17.94139 | 10038 ft | 340 kts | 18° |
| 2026-05-04 16:43 | 59.35212 | 17.97246 | 9152 ft | 335 kts | 18° |
| 2026-05-04 16:43 | 59.39450 | 18.00537 | 8509 ft | 312 kts | 10° |
| 2026-05-04 16:43 | 59.41502 | 18.01555 | 8372 ft | 298 kts | 8° |
| 2026-05-04 16:44 | 59.49349 | 18.05151 | 6949 ft | 284 kts | 8° |
| 2026-05-04 16:45 | 59.53190 | 18.06810 | 6187 ft | 281 kts | 8° |
| 2026-05-04 16:46 | 59.58896 | 18.09182 | 5776 ft | 278 kts | 8° |
| 2026-05-04 16:46 | 59.62664 | 18.10724 | 5015 ft | 274 kts | 8° |
| 2026-05-04 16:47 | 59.66374 | 18.12204 | 4324 ft | 268 kts | 8° |
| 2026-05-04 16:47 | 59.69884 | 18.13592 | 4058 ft | 247 kts | 8° |
| 2026-05-04 16:48 | 59.74717 | 18.15507 | 3066 ft | 233 kts | 8° |
| 2026-05-04 16:48 | 59.76310 | 18.15876 | 2714 ft | 225 kts | 350° |
| 2026-05-04 16:49 | 59.78480 | 18.12654 | 2487 ft | 188 kts | 300° |
| 2026-05-04 16:49 | 59.79799 | 18.08287 | 2493 ft | 181 kts | 298° |
| 2026-05-04 16:50 | 59.80604 | 18.03759 | 2485 ft | 177 kts | 257° |
| 2026-05-04 16:50 | 59.78777 | 18.00945 | 2491 ft | 181 kts | 192° |
| 2026-05-04 16:51 | 59.76303 | 18.00051 | 2305 ft | 180 kts | 192° |
| 2026-05-04 16:51 | 59.75065 | 17.99597 | 2088 ft | 188 kts | 192° |
| 2026-05-04 16:51 | 59.72580 | 17.98691 | 1588 ft | 166 kts | 191° |
| 2026-05-04 16:52 | 59.70511 | 17.97937 | 1164 ft | 139 kts | 191° |
| 2026-05-04 16:52 | 59.69574 | 17.97595 | 974 ft | 135 kts | 191° |
| 2026-05-04 16:53 | 59.67729 | 17.96924 | 688 ft | 134 kts | 193° |
| 2026-05-04 16:53 | 59.65051 | 17.95954 | 188 ft | 129 kts | 196° |
| 2026-05-04 16:54 | 59.64211 | 17.95645 | 113 ft | 109 kts | 191° |
| 2026-05-04 16:55 | 59.63310 | 17.94914 | 122 ft | 16 kts | 1° |
| 2026-05-04 16:55 | 59.63579 | 17.95009 | 115 ft | 24 kts | 9° |
| 2026-05-04 16:56 | 59.63951 | 17.95144 | 109 ft | 29 kts | 11° |
| 2026-05-04 16:56 | 59.64615 | 17.95380 | 105 ft | 35 kts | 11° |
| 2026-05-04 16:57 | 59.64853 | 17.95471 | 108 ft | 35 kts | 10° |
| 2026-05-04 16:57 | 59.65287 | 17.95385 | 124 ft | 30 kts | 345° |
| 2026-05-04 16:58 | 59.65734 | 17.94881 | 124 ft | 25 kts | 257° |
| 2026-05-04 16:58 | 59.65690 | 17.94544 | 123 ft | 26 kts | 255° |
| 2026-05-04 16:59 | 59.65597 | 17.93821 | 113 ft | 31 kts | 256° |
| 2026-05-04 17:00 | 59.65345 | 17.92719 | 112 ft | 8 kts | 152° |
| 2026-05-04 17:00 | 59.65282 | 17.92918 | 112 ft | 8 kts | 71° |
| 2026-05-04 17:01 | 59.65288 | 17.92954 | 111 ft | 0 kts | 71° |